Time;durP1;ratioP1;P1;durP2;ratioP2;P2;SDS_P1;SDS_P2;PMS_P1;PMS_P2;Temp;Humidity;BMP_temperature;BMP_pressure;BME280_temperature;BME280_humidity;BME280_pressure;Samples;Min_cycle;Max_cycle;Signal;HPM_P1;HPM_P2
2022/08/17 00:01:08;;;;;;;6.50;5.40;;;;;;;;;;5076046;28;20554;-75
2022/08/17 00:03:37;;;;;;;7.43;5.07;;;;;;;;;;5075972;28;20471;-75
2022/08/17 00:06:07;;;;;;;5.73;4.77;;;;;;;;;;5076287;28;20451;-75
2022/08/17 00:08:35;;;;;;;7.23;4.43;;;;;;;;;;5075897;28;20465;-76
2022/08/17 00:11:05;;;;;;;5.30;4.80;;;;;;;;;;5076254;28;20456;-76
2022/08/17 00:13:34;;;;;;;5.40;4.90;;;;;;;;;;5075793;28;20467;-76
2022/08/17 00:16:04;;;;;;;6.80;5.07;;;;;;;;;;5075924;28;20436;-76
2022/08/17 00:18:33;;;;;;;5.33;4.80;;;;;;;;;;5076138;28;20458;-76
2022/08/17 00:21:00;;;;;;;5.60;4.73;;;;;;;;;;5075990;28;20455;-76
2022/08/17 00:23:28;;;;;;;6.80;4.83;;;;;;;;;;5075653;28;20479;-76
2022/08/17 00:25:55;;;;;;;6.60;5.60;;;;;;;;;;5076122;28;20455;-76
2022/08/17 00:28:22;;;;;;;5.20;4.50;;;;;;;;;;5075565;28;20479;-76
2022/08/17 00:30:50;;;;;;;9.83;4.60;;;;;;;;;;5075887;28;20452;-76
2022/08/17 00:33:18;;;;;;;5.07;4.57;;;;;;;;;;5075793;28;20479;-76
2022/08/17 00:35:48;;;;;;;7.03;5.27;;;;;;;;;;5075781;28;20451;-76
2022/08/17 00:38:15;;;;;;;5.00;4.50;;;;;;;;;;5075756;28;20447;-75
2022/08/17 00:40:44;;;;;;;5.17;3.93;;;;;;;;;;5075623;28;20467;-75
2022/08/17 00:43:14;;;;;;;6.00;4.80;;;;;;;;;;5075288;28;20479;-76
2022/08/17 00:45:42;;;;;;;9.87;5.53;;;;;;;;;;5075251;28;20466;-75
2022/08/17 00:48:09;;;;;;;5.60;5.00;;;;;;;;;;5075509;28;20483;-75
2022/08/17 00:50:37;;;;;;;5.50;5.00;;;;;;;;;;5075592;28;20790;-76
2022/08/17 00:53:06;;;;;;;5.80;5.17;;;;;;;;;;5075386;28;20468;-76
2022/08/17 00:55:33;;;;;;;5.40;4.77;;;;;;;;;;5074584;28;20459;-76
2022/08/17 00:58:01;;;;;;;6.80;4.63;;;;;;;;;;5075465;28;20805;-76
2022/08/17 01:00:31;;;;;;;7.40;5.00;;;;;;;;;;5075299;28;20952;-75
2022/08/17 01:02:59;;;;;;;5.37;4.50;;;;;;;;;;5075226;28;20471;-75
2022/08/17 01:05:30;;;;;;;5.77;4.90;;;;;;;;;;5075253;28;20458;-75
2022/08/17 01:07:57;;;;;;;5.83;4.70;;;;;;;;;;5075115;28;20494;-75
2022/08/17 01:10:27;;;;;;;12.17;4.30;;;;;;;;;;5074825;28;20459;-75
2022/08/17 01:12:55;;;;;;;4.50;4.10;;;;;;;;;;5075020;28;20474;-75
2022/08/17 01:15:22;;;;;;;4.80;4.40;;;;;;;;;;5074856;28;20546;-75
2022/08/17 01:17:49;;;;;;;4.70;4.20;;;;;;;;;;5074899;28;20448;-75
2022/08/17 01:20:17;;;;;;;4.60;4.20;;;;;;;;;;5074951;28;20448;-75
2022/08/17 01:22:45;;;;;;;5.10;4.70;;;;;;;;;;5074508;28;20471;-75
2022/08/17 01:25:13;;;;;;;5.77;5.17;;;;;;;;;;5074457;28;20447;-75
2022/08/17 01:27:41;;;;;;;7.33;4.67;;;;;;;;;;5074663;28;20507;-75
2022/08/17 01:30:10;;;;;;;9.53;4.90;;;;;;;;;;5074697;28;20456;-75
2022/08/17 01:32:38;;;;;;;4.70;4.30;;;;;;;;;;5074634;28;20472;-75
2022/08/17 01:35:05;;;;;;;5.53;4.93;;;;;;;;;;5074680;28;20463;-75
2022/08/17 01:37:34;;;;;;;5.83;4.70;;;;;;;;;;5074208;28;20454;-75
2022/08/17 01:40:07;;;;;;;5.60;4.60;;;;;;;;;;5074556;28;21014;-75
2022/08/17 01:42:37;;;;;;;4.60;4.20;;;;;;;;;;5074480;28;20499;-75
2022/08/17 01:45:06;;;;;;;5.13;4.63;;;;;;;;;;5073985;28;20456;-75
2022/08/17 01:47:34;;;;;;;4.93;4.33;;;;;;;;;;5074285;28;20491;-75
2022/08/17 01:50:07;;;;;;;6.30;4.97;;;;;;;;;;5074345;28;20456;-75
2022/08/17 01:52:34;;;;;;;8.03;4.23;;;;;;;;;;5074186;28;20541;-75
2022/08/17 01:55:01;;;;;;;5.47;4.97;;;;;;;;;;5074319;28;20451;-75
2022/08/17 01:57:30;;;;;;;10.13;5.30;;;;;;;;;;5074353;28;20786;-75
2022/08/17 01:59:57;;;;;;;5.67;5.07;;;;;;;;;;5073935;28;20432;-75
2022/08/17 02:02:24;;;;;;;5.10;4.60;;;;;;;;;;5073658;28;20460;-75
2022/08/17 02:04:51;;;;;;;7.20;4.80;;;;;;;;;;5074130;28;20850;-75
2022/08/17 02:07:19;;;;;;;9.10;4.20;;;;;;;;;;5073228;28;20498;-76
2022/08/17 02:09:46;;;;;;;7.87;5.23;;;;;;;;;;5073988;28;20522;-75
2022/08/17 02:12:14;;;;;;;5.40;4.90;;;;;;;;;;5073948;28;20458;-75
2022/08/17 02:14:43;;;;;;;6.20;4.40;;;;;;;;;;5073870;28;20802;-75
2022/08/17 02:17:10;;;;;;;6.90;5.63;;;;;;;;;;5073874;28;20444;-75
2022/08/17 02:19:37;;;;;;;6.53;5.63;;;;;;;;;;5073840;28;20921;-75
2022/08/17 02:22:04;;;;;;;5.60;4.60;;;;;;;;;;5073794;28;20460;-75
2022/08/17 02:24:33;;;;;;;7.93;4.70;;;;;;;;;;5073617;28;20480;-75
2022/08/17 02:27:00;;;;;;;6.33;4.10;;;;;;;;;;5073693;28;20840;-75
2022/08/17 02:29:27;;;;;;;6.47;5.07;;;;;;;;;;5073765;28;20460;-75
2022/08/17 02:31:57;;;;;;;5.03;4.50;;;;;;;;;;5073358;28;20448;-76
2022/08/17 02:34:24;;;;;;;4.87;4.40;;;;;;;;;;5073118;28;20471;-76
2022/08/17 02:36:52;;;;;;;5.07;4.60;;;;;;;;;;5073643;28;20451;-75
2022/08/17 02:39:19;;;;;;;6.23;5.07;;;;;;;;;;5073246;28;20483;-76
2022/08/17 02:41:47;;;;;;;5.33;4.83;;;;;;;;;;5073277;28;20458;-76
2022/08/17 02:44:14;;;;;;;8.50;5.60;;;;;;;;;;5072996;28;20480;-76
2022/08/17 02:46:42;;;;;;;5.60;5.10;;;;;;;;;;5073569;28;20436;-76
2022/08/17 02:49:10;;;;;;;9.43;6.00;;;;;;;;;;5073482;28;20491;-75
2022/08/17 02:51:37;;;;;;;6.23;4.93;;;;;;;;;;5073436;28;20447;-75
2022/08/17 02:54:04;;;;;;;10.37;5.60;;;;;;;;;;5073376;28;20479;-75
2022/08/17 02:56:32;;;;;;;11.27;5.77;;;;;;;;;;5073337;28;20972;-76
2022/08/17 02:58:59;;;;;;;8.70;5.20;;;;;;;;;;5073444;28;20439;-76
2022/08/17 03:01:26;;;;;;;5.57;5.07;;;;;;;;;;5073313;28;20451;-76
2022/08/17 03:03:54;;;;;;;5.77;4.50;;;;;;;;;;5073659;28;20514;-75
2022/08/17 03:06:22;;;;;;;6.80;5.10;;;;;;;;;;5072973;28;20462;-75
2022/08/17 03:08:49;;;;;;;6.23;5.63;;;;;;;;;;5073224;28;20471;-75
2022/08/17 03:11:16;;;;;;;7.70;5.33;;;;;;;;;;5073208;28;20830;-75
2022/08/17 03:13:44;;;;;;;7.17;5.20;;;;;;;;;;5073100;28;20475;-75
2022/08/17 03:16:11;;;;;;;4.90;4.40;;;;;;;;;;5072808;28;20452;-75
2022/08/17 03:18:38;;;;;;;9.13;5.70;;;;;;;;;;5074096;28;20444;-75
2022/08/17 03:21:07;;;;;;;7.27;6.57;;;;;;;;;;5077224;28;20474;-75
2022/08/17 03:23:39;;;;;;;6.47;5.50;;;;;;;;;;5076791;28;20482;-75
2022/08/17 03:26:07;;;;;;;8.00;5.40;;;;;;;;;;5076756;28;20439;-75
2022/08/17 03:28:34;;;;;;;8.47;5.07;;;;;;;;;;5076712;28;20544;-75
2022/08/17 03:31:01;;;;;;;5.40;4.67;;;;;;;;;;5077015;28;20447;-75
2022/08/17 03:33:29;;;;;;;5.93;5.33;;;;;;;;;;5076519;28;20483;-75
2022/08/17 03:35:56;;;;;;;6.50;5.67;;;;;;;;;;5076967;28;20444;-75
2022/08/17 03:38:23;;;;;;;5.80;5.17;;;;;;;;;;5076887;28;20462;-75
2022/08/17 03:40:53;;;;;;;7.70;5.27;;;;;;;;;;5076772;28;20459;-75
2022/08/17 03:43:21;;;;;;;8.03;5.67;;;;;;;;;;5076691;28;20479;-75
2022/08/17 03:56:58;;;;;;;6.20;5.60;;;;;;;;;;5076218;28;20426;-75
2022/08/17 03:59:25;;;;;;;8.23;5.90;;;;;;;;;;5076415;28;20466;-75
2022/08/17 04:01:54;;;;;;;6.40;5.53;;;;;;;;;;5076366;28;20454;-75
2022/08/17 04:04:21;;;;;;;6.70;5.50;;;;;;;;;;5076246;28;20476;-75
2022/08/17 04:06:48;;;;;;;6.40;5.40;;;;;;;;;;5076077;28;20459;-75
2022/08/17 04:09:16;;;;;;;6.90;5.60;;;;;;;;;;5075888;28;20861;-75
2022/08/17 04:11:43;;;;;;;6.23;5.27;;;;;;;;;;5076219;28;20448;-75
2022/08/17 04:14:12;;;;;;;7.40;6.20;;;;;;;;;;5076014;28;21047;-75
2022/08/17 04:16:39;;;;;;;10.80;6.07;;;;;;;;;;5076070;28;20456;-75
2022/08/17 04:19:06;;;;;;;6.47;5.13;;;;;;;;;;5075816;28;20451;-75
2022/08/17 04:21:33;;;;;;;7.90;5.50;;;;;;;;;;5076225;28;20455;-76
2022/08/17 04:24:01;;;;;;;6.00;5.10;;;;;;;;;;5075653;28;20476;-75
2022/08/17 04:26:28;;;;;;;6.60;5.90;;;;;;;;;;5075734;28;20467;-75
2022/08/17 04:28:55;;;;;;;11.73;5.10;;;;;;;;;;5075850;28;20471;-75
2022/08/17 04:31:24;;;;;;;12.37;5.40;;;;;;;;;;5074739;28;20451;-75
2022/08/17 04:33:51;;;;;;;6.50;5.50;;;;;;;;;;5075736;28;20471;-75
2022/08/17 04:36:18;;;;;;;4.97;4.47;;;;;;;;;;5075560;28;20462;-75
2022/08/17 04:38:46;;;;;;;16.20;12.30;;;;;;;;;;5075820;28;20447;-75
2022/08/17 04:43:59;;;;;;;7.60;5.20;;;;;;;;;;5075381;28;20809;-75
2022/08/17 04:46:30;;;;;;;5.73;4.67;;;;;;;;;;5075180;28;20863;-76
2022/08/17 04:48:58;;;;;;;6.33;4.90;;;;;;;;;;5075822;28;20469;-78
2022/08/17 04:51:26;;;;;;;7.43;5.17;;;;;;;;;;5075492;28;20956;-76
2022/08/17 04:53:56;;;;;;;5.20;4.63;;;;;;;;;;5075178;28;20983;-76
2022/08/17 04:56:24;;;;;;;5.90;4.47;;;;;;;;;;5075098;28;20459;-76
2022/08/17 04:58:52;;;;;;;5.20;4.70;;;;;;;;;;5075430;28;20845;-76
2022/08/17 05:01:20;;;;;;;5.77;4.63;;;;;;;;;;5075299;28;20458;-76
2022/08/17 05:03:49;;;;;;;5.93;4.70;;;;;;;;;;5074987;28;20845;-76
2022/08/17 05:06:16;;;;;;;6.57;4.67;;;;;;;;;;5075202;28;20455;-76
2022/08/17 05:08:43;;;;;;;6.87;5.63;;;;;;;;;;5075019;28;20479;-76
2022/08/17 05:11:10;;;;;;;8.20;4.60;;;;;;;;;;5074706;28;20452;-76
2022/08/17 05:13:37;;;;;;;16.03;5.07;;;;;;;;;;5074846;28;20479;-76
2022/08/17 05:16:05;;;;;;;7.87;5.40;;;;;;;;;;5074656;28;20452;-76
2022/08/17 05:18:32;;;;;;;6.77;6.10;;;;;;;;;;5074866;28;20909;-76
2022/08/17 05:21:01;;;;;;;10.47;5.30;;;;;;;;;;5074449;28;20811;-76
2022/08/17 05:23:28;;;;;;;10.27;5.63;;;;;;;;;;5074541;28;20562;-75
2022/08/17 05:25:57;;;;;;;10.67;7.30;;;;;;;;;;5078019;28;20447;-76
2022/08/17 05:28:25;;;;;;;13.67;7.00;;;;;;;;;;5094634;28;20656;-76
2022/08/17 05:30:52;;;;;;;10.10;6.97;;;;;;;;;;5094819;28;20989;-76
2022/08/17 05:33:21;;;;;;;13.10;7.17;;;;;;;;;;5094589;28;20477;-76
2022/08/17 05:35:50;;;;;;;11.90;7.30;;;;;;;;;;5094496;28;20494;-76
2022/08/17 05:38:19;;;;;;;9.60;6.00;;;;;;;;;;5094364;28;20801;-76
2022/08/17 05:40:47;;;;;;;7.53;5.10;;;;;;;;;;5094333;28;20455;-76
2022/08/17 05:43:15;;;;;;;4.37;3.97;;;;;;;;;;5094470;28;20470;-76
2022/08/17 05:45:45;;;;;;;7.40;4.27;;;;;;;;;;5094007;28;20465;-76
2022/08/17 05:48:13;;;;;;;6.00;4.70;;;;;;;;;;5094422;28;20493;-75
2022/08/17 05:50:44;;;;;;;4.80;4.40;;;;;;;;;;5094397;28;20455;-75
2022/08/17 05:53:18;;;;;;;5.00;4.07;;;;;;;;;;5094367;28;20475;-76
2022/08/17 05:55:56;;;;;;;4.53;4.10;;;;;;;;;;5093814;28;20788;-75
2022/08/17 05:58:25;;;;;;;4.63;4.23;;;;;;;;;;5094133;28;20450;-75
2022/08/17 06:00:58;;;;;;;5.03;4.63;;;;;;;;;;5088046;28;20445;-75
2022/08/17 06:03:34;;;;;;;5.77;4.43;;;;;;;;;;5089969;28;20478;-76
2022/08/17 06:06:08;;;;;;;8.83;3.90;;;;;;;;;;5092295;28;20902;-76
2022/08/17 06:08:40;;;;;;;4.57;4.17;;;;;;;;;;5092213;28;20978;-76
2022/08/17 06:11:14;;;;;;;4.70;4.30;;;;;;;;;;5092306;28;20457;-75
2022/08/17 06:13:46;;;;;;;4.73;4.27;;;;;;;;;;5091878;28;20481;-75
2022/08/17 06:16:15;;;;;;;5.23;4.83;;;;;;;;;;5092639;28;20835;-75
2022/08/17 06:18:46;;;;;;;6.50;4.43;;;;;;;;;;5092253;28;20485;-76
2022/08/17 06:21:16;;;;;;;5.00;4.20;;;;;;;;;;5092259;28;20832;-76
2022/08/17 06:23:45;;;;;;;7.17;4.00;;;;;;;;;;5091881;28;20500;-76
2022/08/17 06:26:16;;;;;;;4.53;4.07;;;;;;;;;;5092406;28;20457;-76
2022/08/17 06:28:47;;;;;;;5.30;4.90;;;;;;;;;;5091975;28;20481;-76
2022/08/17 06:31:18;;;;;;;6.57;4.17;;;;;;;;;;5072024;28;20824;-76
2022/08/17 06:33:46;;;;;;;4.40;3.93;;;;;;;;;;5071581;28;21034;-76
2022/08/17 06:36:22;;;;;;;5.10;4.53;;;;;;;;;;5071950;28;20463;-76
2022/08/17 06:38:53;;;;;;;4.13;3.73;;;;;;;;;;5071932;28;20215;-76
2022/08/17 06:41:25;;;;;;;4.53;3.70;;;;;;;;;;5072113;28;20875;-76
2022/08/17 06:44:03;;;;;;;4.00;3.53;;;;;;;;;;5071822;28;20487;-76
2022/08/17 06:46:34;;;;;;;4.70;4.23;;;;;;;;;;5071518;28;20466;-75
2022/08/17 06:49:06;;;;;;;5.57;3.70;;;;;;;;;;5071747;28;20584;-76
2022/08/17 06:51:36;;;;;;;8.03;3.80;;;;;;;;;;5071603;28;20502;-76
2022/08/17 06:54:05;;;;;;;4.53;3.30;;;;;;;;;;5071225;28;20744;-76
2022/08/17 06:56:40;;;;;;;4.93;3.57;;;;;;;;;;5088619;28;20211;-76
2022/08/17 06:59:08;;;;;;;11.17;3.77;;;;;;;;;;5091795;28;20249;-76
2022/08/17 07:01:38;;;;;;;4.80;3.20;;;;;;;;;;5091716;28;20222;-76
2022/08/17 07:04:09;;;;;;;8.23;4.30;;;;;;;;;;5089960;28;20266;-76
2022/08/17 07:06:38;;;;;;;5.97;4.03;;;;;;;;;;5091083;28;20211;-75
2022/08/17 07:09:07;;;;;;;5.23;3.67;;;;;;;;;;5091761;28;20909;-76
2022/08/17 07:11:38;;;;;;;3.70;3.40;;;;;;;;;;5091110;28;20716;-76
2022/08/17 07:14:11;;;;;;;4.57;3.30;;;;;;;;;;5091570;28;20234;-76
2022/08/17 07:16:40;;;;;;;5.50;2.90;;;;;;;;;;5088081;28;20490;-76
2022/08/17 07:19:08;;;;;;;5.37;3.50;;;;;;;;;;5082760;28;20471;-76
2022/08/17 07:21:39;;;;;;;3.70;3.40;;;;;;;;;;5083142;28;20218;-76
2022/08/17 07:24:21;;;;;;;5.13;3.50;;;;;;;;;;5082024;28;20216;-76
2022/08/17 07:27:02;;;;;;;3.70;3.40;;;;;;;;;;5069247;28;20237;-76
2022/08/17 07:29:32;;;;;;;4.30;3.47;;;;;;;;;;5070645;28;20228;-76
2022/08/17 07:31:59;;;;;;;4.53;3.70;;;;;;;;;;5071355;28;20216;-76
2022/08/17 07:34:27;;;;;;;7.50;3.77;;;;;;;;;;5070873;28;20250;-75
2022/08/17 07:37:02;;;;;;;6.10;3.67;;;;;;;;;;5071246;28;20213;-76
2022/08/17 07:39:29;;;;;;;6.45;4.07;;;;;;;;;;5071310;28;20705;-76
2022/08/17 07:42:02;;;;;;;6.22;3.40;;;;;;;;;;5071346;28;20208;-76
2022/08/17 07:44:29;;;;;;;8.27;4.87;;;;;;;;;;5070580;28;20240;-76
2022/08/17 07:49:43;;;;;;;4.90;3.40;;;;;;;;;;5071081;28;20232;-76
2022/08/17 07:52:11;;;;;;;4.43;4.03;;;;;;;;;;5071129;28;20205;-76
2022/08/17 07:54:39;;;;;;;6.23;3.80;;;;;;;;;;5070772;28;20736;-76
2022/08/17 07:57:23;;;;;;;9.43;3.50;;;;;;;;;;5071138;28;20244;-76
2022/08/17 08:00:08;;;;;;;7.83;3.63;;;;;;;;;;5071302;28;20208;-76
2022/08/17 08:02:38;;;;;;;14.40;4.87;;;;;;;;;;5070733;28;20262;-76
2022/08/17 08:05:08;;;;;;;14.30;4.40;;;;;;;;;;5071042;28;20228;-76
2022/08/17 08:07:38;;;;;;;29.17;6.50;;;;;;;;;;5074709;28;20617;-76
2022/08/17 08:10:07;;;;;;;6.80;3.90;;;;;;;;;;5074325;28;20346;-76
2022/08/17 08:12:35;;;;;;;4.13;3.57;;;;;;;;;;5081968;28;20209;-76
2022/08/17 08:15:08;;;;;;;5.70;3.47;;;;;;;;;;5082432;28;20662;-76
2022/08/17 08:17:45;;;;;;;5.77;3.97;;;;;;;;;;5082242;28;20243;-76
2022/08/17 08:20:12;;;;;;;4.70;3.80;;;;;;;;;;5084271;28;20201;-76
2022/08/17 08:22:44;;;;;;;10.07;4.30;;;;;;;;;;5080299;28;20987;-76
2022/08/17 08:25:19;;;;;;;22.40;6.13;;;;;;;;;;5074280;28;20516;-76
2022/08/17 08:27:50;;;;;;;6.00;4.30;;;;;;;;;;5074323;28;20852;-76
2022/08/17 08:30:20;;;;;;;5.80;3.20;;;;;;;;;;5073817;28;20503;-76
2022/08/17 08:32:52;;;;;;;4.17;3.87;;;;;;;;;;5074002;28;20506;-76
2022/08/17 08:35:25;;;;;;;4.27;3.93;;;;;;;;;;5074017;28;20975;-76
2022/08/17 08:37:57;;;;;;;4.50;4.10;;;;;;;;;;5073942;28;20458;-75
2022/08/17 08:40:31;;;;;;;3.63;3.33;;;;;;;;;;5073958;28;20470;-76
2022/08/17 08:43:02;;;;;;;7.33;3.40;;;;;;;;;;5073637;28;20478;-76
2022/08/17 08:45:34;;;;;;;6.23;4.10;;;;;;;;;;5073396;28;20466;-76
2022/08/17 08:48:09;;;;;;;8.63;4.20;;;;;;;;;;5074052;28;20209;-76
2022/08/17 08:50:41;;;;;;;6.50;4.63;;;;;;;;;;5091274;28;20485;-76
2022/08/17 08:53:13;;;;;;;5.40;3.60;;;;;;;;;;5093967;28;20469;-76
2022/08/17 08:55:47;;;;;;;5.63;3.90;;;;;;;;;;5093289;28;20512;-76
2022/08/17 08:58:16;;;;;;;5.23;3.77;;;;;;;;;;5093729;28;20943;-76
2022/08/17 09:00:47;;;;;;;6.43;4.10;;;;;;;;;;5093822;28;20215;-76
2022/08/17 09:03:31;;;;;;;7.57;3.83;;;;;;;;;;5093861;28;21001;-76
2022/08/17 09:06:20;;;;;;;3.90;3.43;;;;;;;;;;5093305;28;20449;-76
2022/08/17 09:08:53;;;;;;;5.03;3.70;;;;;;;;;;5093867;28;20620;-76
2022/08/17 09:11:24;;;;;;;4.23;3.20;;;;;;;;;;5093445;28;20454;-75
2022/08/17 09:13:53;;;;;;;3.67;3.37;;;;;;;;;;5093210;28;20470;-76
2022/08/17 09:16:28;;;;;;;4.40;3.70;;;;;;;;;;5092633;28;20450;-75
2022/08/17 09:18:58;;;;;;;12.03;4.67;;;;;;;;;;5082208;28;20500;-76
2022/08/17 09:21:28;;;;;;;8.00;4.20;;;;;;;;;;5084531;28;20449;-75
2022/08/17 09:24:06;;;;;;;3.27;2.97;;;;;;;;;;5093600;28;20465;-75
2022/08/17 09:26:38;;;;;;;3.23;2.90;;;;;;;;;;5092796;28;20441;-75
2022/08/17 09:29:09;;;;;;;4.83;3.60;;;;;;;;;;5093666;28;20461;-75
2022/08/17 09:31:38;;;;;;;4.50;3.37;;;;;;;;;;5093319;28;20823;-76
2022/08/17 09:34:08;;;;;;;5.13;3.67;;;;;;;;;;5092969;28;20470;-75
2022/08/17 09:36:41;;;;;;;5.57;3.90;;;;;;;;;;5093456;28;20453;-75
2022/08/17 09:39:12;;;;;;;6.43;4.80;;;;;;;;;;5093282;28;20507;-76
2022/08/17 09:41:43;;;;;;;3.63;3.27;;;;;;;;;;5092898;28;20477;-76
2022/08/17 09:44:16;;;;;;;6.77;3.60;;;;;;;;;;5092717;28;20882;-75
2022/08/17 09:46:48;;;;;;;5.57;3.83;;;;;;;;;;5093406;28;20438;-76
2022/08/17 09:49:19;;;;;;;5.37;4.17;;;;;;;;;;5092876;28;20446;-75
2022/08/17 09:51:50;;;;;;;3.67;3.37;;;;;;;;;;5093022;28;20450;-76
2022/08/17 09:54:19;;;;;;;3.97;3.53;;;;;;;;;;5092870;28;21096;-75
2022/08/17 09:56:52;;;;;;;4.17;3.80;;;;;;;;;;5092785;28;20478;-76
2022/08/17 09:59:27;;;;;;;3.67;3.20;;;;;;;;;;5092660;28;20461;-76
2022/08/17 10:01:57;;;;;;;3.70;3.17;;;;;;;;;;5089145;28;20457;-76
2022/08/17 10:04:34;;;;;;;4.90;3.40;;;;;;;;;;5079772;28;20467;-76
2022/08/17 10:07:06;;;;;;;5.63;3.70;;;;;;;;;;5081249;28;20435;-76
2022/08/17 10:09:39;;;;;;;4.37;3.87;;;;;;;;;;5092769;28;20830;-76
2022/08/17 10:12:18;;;;;;;5.57;3.90;;;;;;;;;;5092665;28;20931;-76
2022/08/17 10:14:49;;;;;;;3.87;3.50;;;;;;;;;;5092473;28;20943;-76
2022/08/17 10:17:19;;;;;;;8.03;3.73;;;;;;;;;;5092350;28;20537;-76
2022/08/17 10:19:50;;;;;;;4.43;4.03;;;;;;;;;;5092757;28;20801;-76
2022/08/17 10:27:57;;;;;;;6.13;3.97;;;;;;;;;;5091793;28;20917;-76
2022/08/17 10:30:26;;;;;;;6.53;3.60;;;;;;;;;;5092060;28;20477;-77
2022/08/17 10:32:55;;;;;;;4.87;3.67;;;;;;;;;;5092215;28;20465;-76
2022/08/17 10:35:29;;;;;;;4.23;3.60;;;;;;;;;;5092080;28;20451;-76
2022/08/17 10:38:05;;;;;;;4.80;3.60;;;;;;;;;;5083427;28;20468;-76
2022/08/17 10:40:35;;;;;;;3.73;3.33;;;;;;;;;;5071700;28;20447;-76
2022/08/17 10:43:18;;;;;;;6.13;3.73;;;;;;;;;;5072187;28;20467;-76
2022/08/17 10:45:48;;;;;;;5.37;3.80;;;;;;;;;;5071413;28;20463;-76
2022/08/17 10:48:36;;;;;;;4.20;3.43;;;;;;;;;;5071869;28;20443;-76
2022/08/17 10:51:07;;;;;;;3.60;3.30;;;;;;;;;;5072728;28;20568;-76
2022/08/17 10:53:51;;;;;;;4.37;3.43;;;;;;;;;;5085879;28;20471;-76
2022/08/17 10:56:20;;;;;;;3.70;3.40;;;;;;;;;;5083187;28;20461;-76
2022/08/17 10:58:49;;;;;;;5.40;3.63;;;;;;;;;;5085449;28;20894;-76
2022/08/17 11:01:16;;;;;;;4.07;3.77;;;;;;;;;;5091279;28;20454;-76
2022/08/17 11:03:53;;;;;;;5.87;3.03;;;;;;;;;;5080006;28;20469;-76
2022/08/17 11:06:24;;;;;;;3.67;3.37;;;;;;;;;;5092051;28;20521;-76
2022/08/17 11:09:11;;;;;;;7.50;3.83;;;;;;;;;;5092308;28;20935;-76
2022/08/17 11:11:46;;;;;;;7.17;4.30;;;;;;;;;;5092191;28;21188;-77
2022/08/17 11:14:28;;;;;;;4.57;3.50;;;;;;;;;;5080949;28;20883;-76
2022/08/17 11:17:13;;;;;;;9.63;3.57;;;;;;;;;;5072359;28;20432;-76
2022/08/17 11:19:54;;;;;;;6.63;3.33;;;;;;;;;;5078415;28;20816;-76
2022/08/17 11:22:34;;;;;;;4.17;3.87;;;;;;;;;;5086022;28;20442;-76
2022/08/17 11:25:12;;;;;;;4.33;3.07;;;;;;;;;;5093116;28;20440;-76
2022/08/17 11:27:40;;;;;;;18.47;4.10;;;;;;;;;;5093289;28;20465;-76
2022/08/17 11:30:09;;;;;;;4.67;3.60;;;;;;;;;;5094469;28;20482;-77
2022/08/17 11:32:39;;;;;;;5.80;3.50;;;;;;;;;;5084675;28;20447;-76
2022/08/17 11:35:11;;;;;;;3.60;3.30;;;;;;;;;;5078227;28;20509;-76
2022/08/17 11:37:47;;;;;;;6.00;3.20;;;;;;;;;;5075390;28;20467;-77
2022/08/17 11:40:19;;;;;;;5.23;3.67;;;;;;;;;;5076908;28;20464;-76
2022/08/17 11:42:53;;;;;;;9.83;3.73;;;;;;;;;;5080021;28;20475;-76
2022/08/17 11:45:34;;;;;;;5.43;3.20;;;;;;;;;;5088857;28;20861;-76
2022/08/17 11:54:03;;;;;;;6.80;4.50;;;;;;;;;;5085723;28;20465;-77
2022/08/17 11:56:33;;;;;;;3.83;3.53;;;;;;;;;;5080356;28;20458;-76
2022/08/17 11:59:01;;;;;;;3.03;2.73;;;;;;;;;;5095348;28;20449;-76
2022/08/17 12:01:46;;;;;;;4.60;3.30;;;;;;;;;;5095936;28;20450;-76
2022/08/17 12:04:26;;;;;;;2.87;2.67;;;;;;;;;;5091752;28;20480;-76
2022/08/17 12:06:56;;;;;;;6.70;3.37;;;;;;;;;;5094806;28;20456;-76
2022/08/17 12:09:25;;;;;;;4.97;3.00;;;;;;;;;;5094142;28;21038;-76
2022/08/17 12:11:55;;;;;;;3.60;2.87;;;;;;;;;;5094107;28;20663;-76
2022/08/17 12:14:25;;;;;;;4.40;3.80;;;;;;;;;;5094997;28;21040;-76
2022/08/17 12:17:03;;;;;;;3.77;2.87;;;;;;;;;;5094843;28;20454;-76
2022/08/17 12:19:32;;;;;;;3.20;2.80;;;;;;;;;;5095100;28;20445;-76
2022/08/17 12:22:03;;;;;;;5.53;3.30;;;;;;;;;;5094716;28;20553;-76
2022/08/17 12:24:36;;;;;;;3.30;3.03;;;;;;;;;;5094504;28;21001;-76
2022/08/17 12:27:06;;;;;;;9.13;3.33;;;;;;;;;;5094740;28;20852;-76
2022/08/17 12:29:35;;;;;;;3.40;3.07;;;;;;;;;;5094561;28;20454;-76
2022/08/17 12:32:04;;;;;;;4.00;3.70;;;;;;;;;;5094818;28;20994;-76
2022/08/17 12:34:35;;;;;;;3.37;3.07;;;;;;;;;;5094269;28;20978;-77
2022/08/17 12:37:05;;;;;;;3.80;2.80;;;;;;;;;;5088152;28;20477;-76
2022/08/17 12:39:32;;;;;;;3.37;3.07;;;;;;;;;;5084992;28;20455;-76
2022/08/17 12:42:00;;;;;;;2.80;2.60;;;;;;;;;;5079464;28;20447;-76
2022/08/17 12:44:30;;;;;;;3.83;3.53;;;;;;;;;;5073797;28;20483;-76
2022/08/17 12:47:00;;;;;;;3.70;3.00;;;;;;;;;;5074026;28;20443;-76
2022/08/17 12:49:29;;;;;;;7.60;3.50;;;;;;;;;;5073947;28;20440;-76
2022/08/17 12:52:12;;;;;;;5.90;3.30;;;;;;;;;;5073199;28;20525;-76
2022/08/17 12:54:42;;;;;;;3.83;3.53;;;;;;;;;;5073927;28;20976;-76
2022/08/17 12:57:14;;;;;;;5.27;3.27;;;;;;;;;;5074149;28;20451;-76
2022/08/17 12:59:44;;;;;;;3.90;2.93;;;;;;;;;;5073812;28;20459;-76
2022/08/17 13:02:19;;;;;;;5.20;2.73;;;;;;;;;;5074247;28;20444;-77
2022/08/17 13:04:46;;;;;;;3.30;3.03;;;;;;;;;;5073852;28;20443;-76
2022/08/17 13:07:25;;;;;;;3.20;2.77;;;;;;;;;;5073685;28;20431;-76
2022/08/17 13:09:52;;;;;;;3.60;2.90;;;;;;;;;;5073479;28;20530;-76
2022/08/17 13:12:26;;;;;;;5.03;3.80;;;;;;;;;;5073472;28;20494;-76
2022/08/17 13:14:56;;;;;;;5.33;2.80;;;;;;;;;;5073781;28;20436;-76
2022/08/17 13:17:26;;;;;;;3.70;3.07;;;;;;;;;;5073558;28;20489;-76
2022/08/17 13:19:53;;;;;;;2.77;2.50;;;;;;;;;;5073605;28;20819;-76
2022/08/17 13:22:22;;;;;;;4.17;3.17;;;;;;;;;;5073538;28;20479;-76
2022/08/17 13:24:53;;;;;;;3.37;3.07;;;;;;;;;;5073463;28;20452;-76
2022/08/17 13:27:21;;;;;;;3.60;3.27;;;;;;;;;;5081809;28;20542;-76
2022/08/17 13:29:52;;;;;;;4.90;3.33;;;;;;;;;;5079259;28;20443;-76
2022/08/17 13:32:22;;;;;;;4.00;3.37;;;;;;;;;;5072983;28;20471;-76
2022/08/17 13:34:50;;;;;;;8.60;4.00;;;;;;;;;;5087412;28;20504;-76
2022/08/17 13:37:18;;;;;;;5.47;3.20;;;;;;;;;;5090751;28;20939;-76
2022/08/17 13:39:46;;;;;;;4.03;3.50;;;;;;;;;;5093567;28;20468;-76
2022/08/17 13:42:28;;;;;;;3.57;2.53;;;;;;;;;;5093153;28;20450;-76
2022/08/17 13:44:55;;;;;;;3.60;3.17;;;;;;;;;;5093019;28;20462;-76
2022/08/17 13:47:24;;;;;;;5.30;3.17;;;;;;;;;;5093052;28;20737;-76
2022/08/17 13:49:51;;;;;;;3.37;3.07;;;;;;;;;;5093498;28;20451;-76
2022/08/17 13:52:35;;;;;;;4.10;3.10;;;;;;;;;;5092952;28;20489;-76
2022/08/17 13:55:05;;;;;;;3.13;2.53;;;;;;;;;;5093166;28;20446;-76
2022/08/17 13:57:32;;;;;;;3.53;3.23;;;;;;;;;;5093396;28;20451;-76
2022/08/17 14:00:08;;;;;;;3.53;3.20;;;;;;;;;;5093299;28;20480;-76
2022/08/17 14:02:36;;;;;;;8.70;6.00;;;;;;;;;;5092460;28;20809;-76
2022/08/17 14:05:03;;;;;;;3.80;3.00;;;;;;;;;;5092703;28;20455;-75
2022/08/17 14:07:32;;;;;;;3.73;3.20;;;;;;;;;;5092957;28;20446;-75
2022/08/17 14:10:00;;;;;;;3.40;3.10;;;;;;;;;;5093085;28;20935;-76
2022/08/17 14:12:28;;;;;;;10.37;3.23;;;;;;;;;;5092832;28;20483;-76
2022/08/17 14:14:56;;;;;;;3.23;2.97;;;;;;;;;;5092990;28;20932;-76
2022/08/17 14:17:23;;;;;;;3.37;3.07;;;;;;;;;;5092974;28;21029;-76
2022/08/17 14:19:52;;;;;;;4.10;3.60;;;;;;;;;;5092925;28;20931;-76
2022/08/17 14:22:22;;;;;;;3.47;3.17;;;;;;;;;;5093026;28;20455;-76
2022/08/17 14:24:50;;;;;;;3.30;3.00;;;;;;;;;;5093136;28;20458;-76
2022/08/17 14:27:19;;;;;;;13.67;5.00;;;;;;;;;;5093905;28;20952;-76
2022/08/17 14:29:47;;;;;;;3.40;3.10;;;;;;;;;;5093805;28;20435;-76
2022/08/17 14:32:17;;;;;;;3.37;3.10;;;;;;;;;;5093410;28;20485;-76
2022/08/17 14:34:44;;;;;;;8.50;4.50;;;;;;;;;;5093777;28;20458;-76
2022/08/17 14:37:13;;;;;;;5.17;3.40;;;;;;;;;;5093593;28;20447;-76
2022/08/17 14:39:40;;;;;;;5.90;2.90;;;;;;;;;;5093746;28;20947;-76
2022/08/17 14:42:10;;;;;;;3.33;3.03;;;;;;;;;;5093840;28;20455;-76
2022/08/17 14:44:37;;;;;;;7.70;3.40;;;;;;;;;;5093259;28;20525;-76
2022/08/17 14:47:05;;;;;;;3.80;2.87;;;;;;;;;;5093781;28;20458;-76
2022/08/17 14:49:32;;;;;;;3.53;3.23;;;;;;;;;;5093758;28;20451;-76
2022/08/17 14:51:59;;;;;;;6.77;3.60;;;;;;;;;;5093517;28;20494;-76
2022/08/17 14:54:28;;;;;;;3.40;3.10;;;;;;;;;;5093500;28;20814;-76
2022/08/17 14:56:55;;;;;;;3.43;3.13;;;;;;;;;;5093693;28;20806;-76
2022/08/17 14:59:22;;;;;;;3.47;3.17;;;;;;;;;;5093649;28;20857;-76
2022/08/17 15:01:50;;;;;;;3.60;2.93;;;;;;;;;;5093278;28;20454;-76
2022/08/17 15:04:17;;;;;;;5.47;3.37;;;;;;;;;;5093016;28;20467;-76
2022/08/17 15:06:46;;;;;;;4.13;3.23;;;;;;;;;;5093491;28;20438;-76
2022/08/17 15:09:13;;;;;;;3.93;3.57;;;;;;;;;;5093525;28;20538;-76
2022/08/17 15:11:42;;;;;;;3.60;3.30;;;;;;;;;;5093457;28;20474;-76
2022/08/17 15:14:09;;;;;;;3.90;3.53;;;;;;;;;;5093513;28;20466;-76
2022/08/17 15:16:37;;;;;;;3.17;2.87;;;;;;;;;;5097720;28;20454;-76
2022/08/17 15:19:04;;;;;;;7.40;3.57;;;;;;;;;;5097638;28;20446;-76
2022/08/17 15:21:31;;;;;;;3.50;2.80;;;;;;;;;;5097507;28;20854;-76
2022/08/17 15:23:59;;;;;;;5.97;3.30;;;;;;;;;;5094300;28;20472;-77
2022/08/17 15:26:26;;;;;;;5.33;3.20;;;;;;;;;;5083992;28;20478;-76
2022/08/17 15:28:55;;;;;;;3.40;3.10;;;;;;;;;;5087935;28;20439;-76